Time;durP1;ratioP1;P1;durP2;ratioP2;P2;SDS_P1;SDS_P2;PMS_P1;PMS_P2;Temp;Humidity;BMP_temperature;BMP_pressure;BME280_temperature;BME280_humidity;BME280_pressure;Samples;Min_cycle;Max_cycle;Signal;HPM_P1;HPM_P2
2021/01/08 00:02:23;;;;;;;18.07;11.80;;;2.90;1.00;;;;;;5073092;28;20171;-68
2021/01/08 00:04:49;;;;;;;14.53;9.90;;;3.00;99.90;;;;;;5073038;28;20571;-69
2021/01/08 00:07:15;;;;;;;16.77;11.47;;;2.90;99.90;;;;;;5072902;28;20644;-68
2021/01/08 00:09:40;;;;;;;14.70;10.70;;;2.80;1.00;;;;;;5072529;28;20188;-68
2021/01/08 00:12:06;;;;;;;16.17;10.53;;;3.10;99.90;;;;;;5076382;28;20222;-68
2021/01/08 00:14:32;;;;;;;13.80;10.30;;;2.90;1.00;;;;;;5077149;28;20180;-68
2021/01/08 00:16:58;;;;;;;13.33;9.13;;;3.00;99.90;;;;;;5076810;28;20170;-68
2021/01/08 00:19:23;;;;;;;13.63;10.20;;;3.00;1.00;;;;;;5076573;28;20203;-68
2021/01/08 00:21:49;;;;;;;17.47;11.07;;;2.90;48.60;;;;;;5076669;28;20226;-68
2021/01/08 00:24:15;;;;;;;13.60;9.00;;;2.80;99.90;;;;;;5076764;28;20247;-68
2021/01/08 00:26:41;;;;;;;12.35;10.00;;;2.70;1.00;;;;;;5076845;28;20183;-69
2021/01/08 00:29:11;;;;;;;12.70;10.13;;;2.80;99.90;;;;;;5076657;28;20219;-68
2021/01/08 00:31:42;;;;;;;16.05;10.60;;;2.70;1.00;;;;;;5076417;28;20178;-68
2021/01/08 00:34:13;;;;;;;14.40;9.70;;;2.60;99.90;;;;;;5076346;28;20222;-68
2021/01/08 00:36:48;;;;;;;15.20;10.25;;;2.80;1.00;;;;;;5076445;28;20163;-68
2021/01/08 00:39:13;;;;;;;16.08;9.65;;;2.60;1.00;;;;;;5076440;28;20215;-69
2021/01/08 00:41:39;;;;;;;16.23;11.27;;;2.60;99.90;;;;;;5076404;28;20698;-68
2021/01/08 00:44:05;;;;;;;15.63;10.97;;;2.50;1.00;;;;;;5075983;28;20176;-69
2021/01/08 00:46:47;;;;;;;16.20;10.33;;;2.50;13.10;;;;;;5076024;28;20164;-68
2021/01/08 00:49:15;;;;;;;15.32;11.32;;;2.50;1.00;;;;;;5075928;28;20482;-68
2021/01/08 00:51:41;;;;;;;20.52;10.75;;;2.50;1.00;;;;;;5075990;28;20176;-68
2021/01/08 00:54:07;;;;;;;15.55;11.52;;;2.90;99.90;;;;;;5076205;28;20172;-68
2021/01/08 00:56:33;;;;;;;15.98;11.30;;;3.20;1.00;;;;;;5076223;28;20172;-68
2021/01/08 00:58:59;;;;;;;13.80;9.63;;;3.40;1.00;;;;;;5076334;28;20207;-68
2021/01/08 01:01:24;;;;;;;16.03;11.33;;;3.20;1.00;;;;;;5075725;28;20388;-68
2021/01/08 01:03:50;;;;;;;12.83;9.70;;;3.00;14.60;;;;;;5075851;28;20373;-69
2021/01/08 01:06:29;;;;;;;14.40;10.23;;;3.00;99.90;;;;;;5075759;28;20179;-68
2021/01/08 01:08:55;;;;;;;12.95;9.57;;;2.90;42.70;;;;;;5075876;28;20306;-68
2021/01/08 01:11:23;;;;;;;13.40;9.95;;;2.80;1.00;;;;;;5075654;28;20172;-68
2021/01/08 01:13:50;;;;;;;11.00;8.88;;;2.80;99.90;;;;;;5075869;28;20633;-68
2021/01/08 01:16:17;;;;;;;14.50;9.63;;;2.70;99.90;;;;;;5075832;28;20172;-68
2021/01/08 01:18:43;;;;;;;11.13;8.80;;;2.50;1.00;;;;;;5075595;28;20279;-68
2021/01/08 01:21:10;;;;;;;12.23;9.25;;;2.40;1.00;;;;;;5075508;28;20171;-68
2021/01/08 01:23:36;;;;;;;14.80;10.45;;;2.60;99.90;;;;;;5074813;28;20191;-68
2021/01/08 01:26:03;;;;;;;13.00;9.80;;;2.60;1.00;;;;;;5075668;28;20226;-68
2021/01/08 01:28:29;;;;;;;13.95;9.68;;;2.90;99.90;;;;;;5075233;28;20200;-70
2021/01/08 01:30:55;;;;;;;13.80;10.13;;;2.60;1.00;;;;;;5075280;28;20191;-68
2021/01/08 01:33:20;;;;;;;14.90;10.03;;;2.80;1.00;;;;;;5075496;28;20180;-68
2021/01/08 01:35:46;;;;;;;12.23;10.20;;;2.60;1.00;;;;;;5075429;28;20172;-68
2021/01/08 01:38:11;;;;;;;12.40;9.90;;;2.60;99.90;;;;;;5075037;28;20192;-68
2021/01/08 01:40:37;;;;;;;12.57;9.70;;;2.60;1.00;;;;;;5075337;28;20188;-68
2021/01/08 01:43:02;;;;;;;14.57;10.30;;;3.00;1.00;;;;;;5075019;28;20194;-68
2021/01/08 01:45:28;;;;;;;15.67;10.80;;;2.90;99.90;;;;;;5075027;28;20167;-68
2021/01/08 01:47:53;;;;;;;15.03;9.90;;;2.90;1.00;;;;;;5074771;28;20302;-68
2021/01/08 01:50:19;;;;;;;13.03;9.27;;;3.00;99.90;;;;;;5074869;28;20271;-69
2021/01/08 01:52:45;;;;;;;15.52;10.23;;;2.80;99.90;;;;;;5074864;28;20160;-69
2021/01/08 01:55:13;;;;;;;13.83;9.13;;;3.00;99.90;;;;;;5074879;28;20250;-68
2021/01/08 01:57:38;;;;;;;14.20;9.45;;;2.70;1.00;;;;;;5074666;28;20183;-68
2021/01/08 02:00:06;;;;;;;11.73;9.40;;;2.70;1.00;;;;;;5074566;28;20188;-68
2021/01/08 02:02:48;;;;;;;13.40;9.50;;;2.90;1.00;;;;;;5074866;28;20191;-68
2021/01/08 02:05:17;;;;;;;13.52;8.95;;;3.00;99.90;;;;;;5074657;28;20156;-69
2021/01/08 02:07:49;;;;;;;10.43;8.45;;;2.70;30.10;;;;;;5074619;28;20172;-68
2021/01/08 02:10:15;;;;;;;12.00;8.30;;;3.10;1.00;;;;;;5074513;28;20275;-68
2021/01/08 02:12:43;;;;;;;9.80;8.03;;;2.80;41.50;;;;;;5074779;28;20564;-67
2021/01/08 02:15:10;;;;;;;10.30;8.52;;;2.70;99.90;;;;;;5074714;28;20171;-68
2021/01/08 02:17:35;;;;;;;11.05;8.27;;;2.50;6.20;;;;;;5074352;28;20555;-68
2021/01/08 02:20:07;;;;;;;10.43;7.80;;;2.60;99.90;;;;;;5074260;28;20181;-68
2021/01/08 02:22:49;;;;;;;11.73;9.25;;;2.50;99.90;;;;;;5074507;28;20267;-68
2021/01/08 02:25:25;;;;;;;11.35;7.65;;;2.60;99.90;;;;;;5074614;28;20164;-68
2021/01/08 02:28:22;;;;;;;10.98;8.52;;;2.60;99.90;;;;;;5074583;28;20617;-68
2021/01/08 02:30:49;;;;;;;12.93;8.27;;;2.60;1.00;;;;;;5074448;28;20192;-68
2021/01/08 02:33:17;;;;;;;10.05;7.53;;;2.60;99.90;;;;;;5074312;28;20536;-68
2021/01/08 02:35:43;;;;;;;12.40;8.63;;;2.40;1.00;;;;;;5073166;28;20648;-68
2021/01/08 02:38:12;;;;;;;13.15;8.77;;;2.40;1.00;;;;;;5073968;28;20530;-68
2021/01/08 02:40:37;;;;;;;11.05;8.93;;;2.60;99.90;;;;;;5073876;28;20188;-68
2021/01/08 02:43:05;;;;;;;11.80;8.53;;;2.70;99.90;;;;;;5073809;28;20173;-68
2021/01/08 02:45:32;;;;;;;13.25;9.82;;;2.90;99.90;;;;;;5074136;28;20247;-68
2021/01/08 02:47:58;;;;;;;12.85;8.63;;;2.60;99.90;;;;;;5073751;28;20662;-69
2021/01/08 02:50:24;;;;;;;16.83;8.85;;;2.60;99.90;;;;;;5073778;28;20203;-69
2021/01/08 02:53:00;;;;;;;12.70;9.40;;;2.60;99.90;;;;;;5073958;28;20168;-68
2021/01/08 02:55:33;;;;;;;12.27;9.13;;;2.80;99.90;;;;;;5073622;28;20168;-68
2021/01/08 02:58:02;;;;;;;14.35;9.77;;;2.70;99.90;;;;;;5073631;28;20180;-68
2021/01/08 03:00:30;;;;;;;10.70;8.40;;;2.60;99.90;;;;;;5073599;28;20187;-68
2021/01/08 03:02:58;;;;;;;11.25;8.80;;;2.60;99.90;;;;;;5073435;28;20172;-69
2021/01/08 03:05:27;;;;;;;15.75;11.10;;;2.60;1.00;;;;;;5073594;28;20168;-69
2021/01/08 03:07:53;;;;;;;13.93;10.30;;;2.70;1.00;;;;;;5073522;28;20545;-69
2021/01/08 03:10:18;;;;;;;12.33;9.17;;;2.50;99.90;;;;;;5073476;28;20184;-68
2021/01/08 03:12:55;;;;;;;13.13;9.53;;;2.50;99.90;;;;;;5074199;28;20392;-68
2021/01/08 03:15:20;;;;;;;13.77;10.43;;;2.50;99.90;;;;;;5073707;28;20584;-69
2021/01/08 03:17:46;;;;;;;13.03;10.17;;;2.70;99.90;;;;;;5073576;28;20331;-69
2021/01/08 03:20:12;;;;;;;15.00;10.27;;;2.60;97.00;;;;;;5073501;28;20188;-68
2021/01/08 03:22:37;;;;;;;14.57;10.63;;;2.50;99.90;;;;;;5073519;28;20698;-68
2021/01/08 03:25:03;;;;;;;14.60;9.43;;;2.60;99.90;;;;;;5073285;28;20384;-68
2021/01/08 03:27:29;;;;;;;20.03;11.10;;;2.70;99.90;;;;;;5073162;28;20175;-68
2021/01/08 03:29:54;;;;;;;16.83;11.30;;;2.70;99.90;;;;;;5073105;28;20446;-68
2021/01/08 03:32:20;;;;;;;19.27;14.03;;;2.90;99.90;;;;;;5073406;28;20199;-69
2021/01/08 03:34:46;;;;;;;15.43;11.00;;;2.70;28.20;;;;;;5073430;28;20172;-68
2021/01/08 03:37:11;;;;;;;15.10;11.83;;;2.90;1.00;;;;;;5073341;28;20171;-68
2021/01/08 03:39:37;;;;;;;15.30;10.40;;;2.80;99.90;;;;;;5072952;28;20625;-69
2021/01/08 03:42:02;;;;;;;16.47;11.00;;;2.70;99.90;;;;;;5072967;28;20659;-68
2021/01/08 03:44:28;;;;;;;18.70;11.93;;;2.80;99.90;;;;;;5072895;28;20160;-68
2021/01/08 03:46:53;;;;;;;17.20;10.87;;;2.60;99.90;;;;;;5072922;28;20168;-68
2021/01/08 03:49:19;;;;;;;16.60;10.40;;;2.70;99.90;;;;;;5072686;28;20211;-68
2021/01/08 03:51:44;;;;;;;17.10;11.23;;;2.60;99.90;;;;;;5072829;28;20168;-68
2021/01/08 03:54:10;;;;;;;16.53;11.27;;;2.70;99.90;;;;;;5072762;28;20172;-68
2021/01/08 03:56:35;;;;;;;25.53;12.33;;;2.90;99.90;;;;;;5072709;28;20645;-68
2021/01/08 03:59:01;;;;;;;14.97;9.77;;;3.20;1.00;;;;;;5072792;28;20203;-68
2021/01/08 04:01:27;;;;;;;14.13;10.00;;;3.10;99.90;;;;;;5073168;28;20165;-68
2021/01/08 04:03:52;;;;;;;27.93;9.80;;;3.00;1.00;;;;;;5072704;28;20172;-68
2021/01/08 04:06:18;;;;;;;14.87;10.03;;;3.00;82.00;;;;;;5072991;28;20668;-68
2021/01/08 04:08:43;;;;;;;12.00;9.90;;;2.90;1.00;;;;;;5072604;28;20182;-68
2021/01/08 04:11:09;;;;;;;19.27;10.40;;;3.00;1.00;;;;;;5072694;28;20649;-68
2021/01/08 04:13:34;;;;;;;15.43;10.90;;;2.90;99.90;;;;;;5072832;28;20248;-68
2021/01/08 04:16:00;;;;;;;14.20;9.87;;;2.90;1.00;;;;;;5072592;28;20540;-69
2021/01/08 04:18:25;;;;;;;14.27;9.80;;;2.90;99.90;;;;;;5072560;28;20192;-68
2021/01/08 04:20:51;;;;;;;14.83;9.63;;;2.90;99.90;;;;;;5072515;28;20237;-68
2021/01/08 04:23:16;;;;;;;14.70;10.10;;;2.70;1.00;;;;;;5072527;28;20267;-68
2021/01/08 04:25:42;;;;;;;9.50;7.00;;;2.60;1.00;;;;;;5072832;28;20164;-68
2021/01/08 04:28:07;;;;;;;14.57;9.50;;;2.60;95.90;;;;;;5072765;28;20637;-68
2021/01/08 04:30:33;;;;;;;16.10;10.63;;;2.50;99.90;;;;;;5072362;28;20195;-68
2021/01/08 04:32:59;;;;;;;12.40;9.00;;;2.60;1.00;;;;;;5072793;28;20674;-68
2021/01/08 04:35:24;;;;;;;12.77;9.63;;;2.50;99.90;;;;;;5072636;28;20168;-68
2021/01/08 04:37:50;;;;;;;12.60;8.57;;;3.00;1.00;;;;;;5072605;28;20219;-68
2021/01/08 04:40:15;;;;;;;16.30;10.67;;;3.10;99.90;;;;;;5072574;28;20590;-68
2021/01/08 04:42:41;;;;;;;13.90;9.60;;;2.90;29.60;;;;;;5072320;28;20160;-68
2021/01/08 04:45:07;;;;;;;13.27;9.03;;;2.80;1.00;;;;;;5072198;28;20198;-68
2021/01/08 04:47:35;;;;;;;13.23;8.70;;;2.80;1.00;;;;;;5072288;28;20536;-68
2021/01/08 04:50:02;;;;;;;17.63;10.90;;;2.80;1.00;;;;;;5072024;28;20195;-69
2021/01/08 04:52:29;;;;;;;16.00;10.73;;;2.90;35.90;;;;;;5072322;28;20176;-68
2021/01/08 04:54:55;;;;;;;14.63;10.10;;;2.90;1.30;;;;;;5072194;28;20249;-68
2021/01/08 04:57:23;;;;;;;16.98;11.13;;;3.10;99.90;;;;;;5072767;28;20596;-68
2021/01/08 04:59:49;;;;;;;12.75;9.10;;;2.90;99.90;;;;;;5075532;28;20207;-68
2021/01/08 05:02:15;;;;;;;18.02;12.30;;;3.00;1.00;;;;;;5075497;28;20164;-68
2021/01/08 05:04:42;;;;;;;14.87;10.67;;;3.20;99.90;;;;;;5075653;28;20421;-67
2021/01/08 05:07:07;;;;;;;15.18;9.77;;;3.10;99.90;;;;;;5075566;28;20380;-68
2021/01/08 05:09:33;;;;;;;12.90;8.93;;;3.10;1.00;;;;;;5075920;28;20195;-67
2021/01/08 05:12:00;;;;;;;14.07;10.17;;;3.00;99.90;;;;;;5075328;28;20168;-68
2021/01/08 05:14:26;;;;;;;16.17;9.70;;;2.90;81.10;;;;;;5075286;28;20176;-68
2021/01/08 05:16:55;;;;;;;18.23;10.30;;;3.00;1.00;;;;;;5075392;28;20179;-68
2021/01/08 05:19:23;;;;;;;13.65;8.98;;;2.80;99.90;;;;;;5075458;28;20677;-68
2021/01/08 05:21:50;;;;;;;12.38;8.40;;;2.70;1.00;;;;;;5075587;28;20199;-68
2021/01/08 05:24:16;;;;;;;12.50;9.02;;;2.80;1.00;;;;;;5075489;28;20176;-68
2021/01/08 05:26:42;;;;;;;12.55;8.48;;;3.20;99.90;;;;;;5075426;28;20223;-69
2021/01/08 05:29:07;;;;;;;13.00;9.37;;;2.90;1.00;;;;;;5075543;28;20196;-69
2021/01/08 05:31:34;;;;;;;14.07;9.13;;;2.90;99.90;;;;;;5075366;28;20587;-68
2021/01/08 05:34:00;;;;;;;14.40;9.80;;;3.20;99.90;;;;;;5075519;28;20514;-68
2021/01/08 05:36:27;;;;;;;12.20;8.18;;;3.10;99.90;;;;;;5075263;28;20190;-68
2021/01/08 05:38:57;;;;;;;12.85;9.43;;;2.80;1.00;;;;;;5075052;28;20200;-68
2021/01/08 05:41:24;;;;;;;13.57;9.50;;;2.70;1.00;;;;;;5075069;28;20169;-68
2021/01/08 05:43:50;;;;;;;13.93;8.75;;;2.70;50.70;;;;;;5075342;28;20697;-68
2021/01/08 05:46:23;;;;;;;15.30;9.33;;;2.70;6.90;;;;;;5075199;28;20203;-69
2021/01/08 05:48:52;;;;;;;12.48;7.65;;;2.60;99.90;;;;;;5074847;28;20197;-68
2021/01/08 05:51:19;;;;;;;13.07;8.88;;;2.70;99.90;;;;;;5074841;28;20199;-68
2021/01/08 05:53:51;;;;;;;9.85;7.38;;;2.80;99.90;;;;;;5074862;28;20663;-69
2021/01/08 05:56:19;;;;;;;11.98;7.38;;;2.80;99.90;;;;;;5074739;28;20164;-67
2021/01/08 05:58:45;;;;;;;12.00;8.05;;;2.70;99.90;;;;;;5074659;28;20652;-67
2021/01/08 06:01:12;;;;;;;12.15;8.50;;;2.80;99.90;;;;;;5074791;28;20199;-68
2021/01/08 06:03:39;;;;;;;11.10;6.95;;;2.60;99.90;;;;;;5074862;28;20176;-67
2021/01/08 06:06:05;;;;;;;10.57;7.18;;;2.70;1.00;;;;;;5075017;28;20192;-67
2021/01/08 06:08:38;;;;;;;12.35;7.63;;;2.70;99.90;;;;;;5074419;28;20171;-68
2021/01/08 06:11:06;;;;;;;16.02;7.72;;;3.00;99.90;;;;;;5074507;28;20203;-68
2021/01/08 06:13:34;;;;;;;10.13;6.75;;;3.10;74.60;;;;;;5074792;28;20550;-68
2021/01/08 06:16:01;;;;;;;20.63;10.88;;;3.00;1.00;;;;;;5074804;28;20191;-68
2021/01/08 06:18:28;;;;;;;16.83;9.80;;;2.80;1.00;;;;;;5074409;28;20199;-68
2021/01/08 06:21:02;;;;;;;14.18;8.70;;;3.10;1.00;;;;;;5074384;28;20722;-68
2021/01/08 06:23:44;;;;;;;15.23;9.15;;;3.10;1.00;;;;;;5074321;28;20156;-68
2021/01/08 06:26:15;;;;;;;13.73;9.18;;;3.20;99.90;;;;;;5074309;28;20210;-68
2021/01/08 06:28:43;;;;;;;14.43;9.93;;;3.10;99.90;;;;;;5073964;28;20174;-67
2021/01/08 06:31:21;;;;;;;18.77;11.25;;;2.90;99.90;;;;;;5074179;28;20510;-67
2021/01/08 06:33:53;;;;;;;13.18;9.35;;;3.00;99.90;;;;;;5074231;28;20621;-67
2021/01/08 06:36:23;;;;;;;12.68;9.32;;;3.20;1.00;;;;;;5074235;28;20199;-67
2021/01/08 06:38:52;;;;;;;12.40;9.02;;;2.90;99.90;;;;;;5073651;28;20229;-67
2021/01/08 06:41:17;;;;;;;13.65;9.40;;;2.70;99.90;;;;;;5074219;28;20165;-68
2021/01/08 06:43:55;;;;;;;12.33;8.50;;;2.70;1.00;;;;;;5074108;28;20540;-68
2021/01/08 06:46:44;;;;;;;13.32;8.77;;;2.60;16.70;;;;;;5074257;28;20513;-66
2021/01/08 06:49:12;;;;;;;14.52;9.50;;;2.60;99.90;;;;;;5073735;28;20572;-68
2021/01/08 06:51:39;;;;;;;11.10;8.55;;;2.70;1.00;;;;;;5073697;28;20267;-68
2021/01/08 06:54:10;;;;;;;14.90;9.68;;;2.60;1.00;;;;;;5073850;28;20169;-68
2021/01/08 06:56:40;;;;;;;15.30;9.45;;;2.40;1.00;;;;;;5073788;28;20199;-68
2021/01/08 06:59:10;;;;;;;15.52;9.07;;;2.60;99.90;;;;;;5073429;28;20200;-67
2021/01/08 07:01:57;;;;;;;12.88;9.40;;;2.50;99.90;;;;;;5073894;28;20288;-68
2021/01/08 07:04:27;;;;;;;18.70;10.02;;;2.60;1.00;;;;;;5073691;28;20195;-67
2021/01/08 07:06:54;;;;;;;14.45;9.27;;;2.70;99.90;;;;;;5073114;28;20481;-68
2021/01/08 07:09:20;;;;;;;15.55;10.55;;;2.80;99.90;;;;;;5073554;28;20282;-68
2021/01/08 07:11:55;;;;;;;16.20;11.18;;;2.90;1.00;;;;;;5071957;28;20181;-68
2021/01/08 07:14:23;;;;;;;16.40;10.57;;;2.80;1.00;;;;;;5073214;28;20156;-68
2021/01/08 07:16:56;;;;;;;19.52;11.13;;;2.70;1.00;;;;;;5073202;28;20338;-68
2021/01/08 07:19:24;;;;;;;17.88;11.18;;;2.70;1.00;;;;;;5072876;28;20219;-68
2021/01/08 07:21:52;;;;;;;16.73;10.70;;;3.20;99.90;;;;;;5072368;28;20214;-66
2021/01/08 07:24:27;;;;;;;16.83;10.35;;;3.20;99.90;;;;;;5073084;28;20219;-68
2021/01/08 07:26:53;;;;;;;18.73;11.15;;;3.30;1.00;;;;;;5073150;28;20167;-68
2021/01/08 07:29:28;;;;;;;16.00;10.47;;;3.00;99.90;;;;;;5072956;28;20199;-68
2021/01/08 07:31:56;;;;;;;22.02;10.43;;;2.90;1.00;;;;;;5073479;28;20598;-68
2021/01/08 07:34:35;;;;;;;17.60;11.10;;;3.00;1.00;;;;;;5073284;28;20172;-67
2021/01/08 07:37:02;;;;;;;16.50;10.65;;;3.00;1.00;;;;;;5073344;28;20163;-67
2021/01/08 07:39:39;;;;;;;17.98;11.43;;;3.00;99.90;;;;;;5072743;28;20200;-68
2021/01/08 07:42:29;;;;;;;20.35;12.50;;;2.90;1.00;;;;;;5072987;28;20164;-68
2021/01/08 07:44:55;;;;;;;16.17;9.95;;;2.90;99.90;;;;;;5072945;28;20160;-67
2021/01/08 07:47:25;;;;;;;19.77;11.30;;;2.90;1.00;;;;;;5072950;28;20207;-68
2021/01/08 07:50:07;;;;;;;18.73;10.32;;;2.80;1.00;;;;;;5072636;28;20204;-68
2021/01/08 07:52:44;;;;;;;16.30;11.65;;;2.80;1.00;;;;;;5072731;28;20172;-68
2021/01/08 07:55:12;;;;;;;21.33;10.70;;;2.90;1.00;;;;;;5072816;28;20161;-66
2021/01/08 07:57:59;;;;;;;12.88;8.40;;;2.80;1.00;;;;;;5072729;28;20660;-68
2021/01/08 08:00:28;;;;;;;13.63;9.25;;;2.80;1.00;;;;;;5072855;28;20188;-68
2021/01/08 08:02:57;;;;;;;17.10;10.18;;;2.80;1.00;;;;;;5072871;28;20167;-68
2021/01/08 08:05:27;;;;;;;15.40;9.75;;;2.80;1.00;;;;;;5072662;28;20176;-68
2021/01/08 08:08:02;;;;;;;14.50;9.30;;;2.80;1.00;;;;;;5072670;28;20190;-69
2021/01/08 08:10:30;;;;;;;12.70;8.45;;;2.90;99.90;;;;;;5072652;28;20191;-69
2021/01/08 08:12:57;;;;;;;15.43;9.68;;;3.20;99.90;;;;;;5071301;28;20168;-69
2021/01/08 08:15:23;;;;;;;14.32;9.05;;;3.20;53.30;;;;;;5072786;28;20164;-69
2021/01/08 08:17:49;;;;;;;20.90;11.68;;;3.30;1.00;;;;;;5072559;28;20255;-69
2021/01/08 08:20:23;;;;;;;13.82;9.05;;;3.20;1.00;;;;;;5072435;28;20192;-69
2021/01/08 08:22:50;;;;;;;20.08;11.27;;;3.00;1.00;;;;;;5072774;28;20162;-69
2021/01/08 08:25:31;;;;;;;18.00;10.98;;;3.00;99.90;;;;;;5072953;28;20306;-69
2021/01/08 08:27:59;;;;;;;16.52;9.57;;;3.30;1.00;;;;;;5072650;28;20167;-69
2021/01/08 08:30:27;;;;;;;14.77;9.20;;;3.20;1.00;;;;;;5072687;28;20187;-68
2021/01/08 08:32:53;;;;;;;17.73;11.02;;;3.30;1.00;;;;;;5074058;28;20238;-68
2021/01/08 08:35:19;;;;;;;16.33;10.60;;;3.20;1.00;;;;;;5076507;28;20239;-68
2021/01/08 08:37:51;;;;;;;23.05;11.93;;;3.20;99.90;;;;;;5076335;28;20194;-68
2021/01/08 08:40:24;;;;;;;18.48;11.48;;;3.40;99.90;;;;;;5076538;28;20199;-68
2021/01/08 08:42:51;;;;;;;16.50;11.65;;;3.50;15.50;;;;;;5076741;28;20168;-68
2021/01/08 08:45:18;;;;;;;16.55;12.05;;;3.10;1.00;;;;;;5076746;28;20599;-68
2021/01/08 08:47:47;;;;;;;16.17;11.32;;;3.30;1.00;;;;;;5076210;28;20625;-68
2021/01/08 08:50:14;;;;;;;14.10;9.65;;;3.30;99.90;;;;;;5076164;28;20200;-68
2021/01/08 08:52:40;;;;;;;18.00;11.18;;;3.30;1.00;;;;;;5076133;28;20176;-68
2021/01/08 08:55:06;;;;;;;20.47;11.40;;;3.10;1.00;;;;;;5075897;28;20579;-68
2021/01/08 08:57:32;;;;;;;19.35;10.68;;;3.00;99.90;;;;;;5076332;28;20666;-67
2021/01/08 08:59:58;;;;;;;19.17;10.17;;;2.90;99.90;;;;;;5075837;28;20294;-68
2021/01/08 09:02:25;;;;;;;15.30;9.53;;;2.70;1.00;;;;;;5076386;28;20164;-68
2021/01/08 09:04:57;;;;;;;18.15;11.25;;;2.70;99.90;;;;;;5076403;28;20176;-68
2021/01/08 09:07:45;;;;;;;18.73;11.55;;;2.70;99.90;;;;;;5075717;28;20194;-68
2021/01/08 09:10:22;;;;;;;15.27;9.68;;;2.80;99.90;;;;;;5075772;28;20188;-68
2021/01/08 09:13:09;;;;;;;18.65;11.25;;;2.70;39.60;;;;;;5076060;28;20249;-68
2021/01/08 09:15:42;;;;;;;21.67;11.35;;;2.70;99.90;;;;;;5076012;28;20216;-67
2021/01/08 09:18:38;;;;;;;23.42;11.80;;;2.70;99.90;;;;;;5075543;28;20184;-68
2021/01/08 09:21:16;;;;;;;18.15;10.20;;;2.70;43.10;;;;;;5073257;28;20188;-68
2021/01/08 09:23:46;;;;;;;21.80;12.10;;;2.70;13.20;;;;;;5075586;28;20202;-68
2021/01/08 09:26:13;;;;;;;19.02;11.55;;;2.80;99.90;;;;;;5075581;28;20184;-68
2021/01/08 09:28:40;;;;;;;17.65;11.43;;;3.00;99.90;;;;;;5074965;28;20182;-66
2021/01/08 09:31:06;;;;;;;18.33;11.88;;;2.70;99.90;;;;;;5075120;28;20679;-68
2021/01/08 09:33:32;;;;;;;20.20;12.13;;;2.90;99.90;;;;;;5075115;28;20264;-67
2021/01/08 09:35:57;;;;;;;21.57;11.63;;;2.80;99.90;;;;;;5075116;28;20414;-67
2021/01/08 09:38:24;;;;;;;18.77;11.80;;;2.80;1.00;;;;;;5074954;28;20300;-66
2021/01/08 09:40:50;;;;;;;18.30;11.05;;;2.70;99.90;;;;;;5075318;28;20196;-68
2021/01/08 09:43:17;;;;;;;17.60;9.80;;;2.60;99.90;;;;;;5074684;28;20506;-68
2021/01/08 09:45:43;;;;;;;19.42;11.75;;;2.70;1.00;;;;;;5075290;28;20180;-68
2021/01/08 09:48:23;;;;;;;19.27;11.55;;;3.00;1.00;;;;;;5074902;28;20267;-68
2021/01/08 09:51:03;;;;;;;18.08;11.30;;;2.80;1.00;;;;;;5074678;28;20190;-68
2021/01/08 09:53:29;;;;;;;18.90;10.80;;;2.80;99.90;;;;;;5074691;28;20164;-68
2021/01/08 09:56:10;;;;;;;20.10;11.47;;;2.80;1.00;;;;;;5075085;28;20180;-67
2021/01/08 09:58:36;;;;;;;17.77;11.52;;;2.80;1.00;;;;;;5074476;28;20188;-68
2021/01/08 10:01:02;;;;;;;19.23;10.97;;;2.80;1.00;;;;;;5075114;28;20175;-67
2021/01/08 10:03:27;;;;;;;18.83;10.67;;;2.80;1.00;;;;;;5074862;28;20214;-67
2021/01/08 10:06:09;;;;;;;20.63;12.17;;;2.80;99.90;;;;;;5075175;28;20676;-68
2021/01/08 10:08:35;;;;;;;20.83;11.80;;;2.70;20.70;;;;;;5074794;28;20145;-67
2021/01/08 10:11:00;;;;;;;18.10;11.00;;;2.70;1.00;;;;;;5074616;28;20225;-68
2021/01/08 10:13:26;;;;;;;19.93;11.73;;;2.80;99.90;;;;;;5074785;28;20741;-68
2021/01/08 10:15:56;;;;;;;21.43;12.37;;;2.80;1.00;;;;;;5074974;28;20184;-67
2021/01/08 10:18:27;;;;;;;18.25;11.15;;;2.90;99.90;;;;;;5074492;28;20230;-67
2021/01/08 10:20:52;;;;;;;20.05;11.70;;;3.10;99.90;;;;;;5074391;28;20605;-67
2021/01/08 10:23:23;;;;;;;16.40;9.87;;;3.20;99.90;;;;;;5074603;28;20165;-68
2021/01/08 10:25:50;;;;;;;17.25;11.05;;;3.20;99.90;;;;;;5074675;28;20180;-68
2021/01/08 10:28:19;;;;;;;18.50;11.32;;;3.30;1.00;;;;;;5073211;28;20233;-68
2021/01/08 10:30:48;;;;;;;19.23;12.70;;;3.20;1.00;;;;;;5074329;28;20537;-69
2021/01/08 10:33:14;;;;;;;19.25;12.55;;;3.30;99.90;;;;;;5074307;28;20164;-69
2021/01/08 10:35:46;;;;;;;17.88;11.57;;;3.50;99.90;;;;;;5074339;28;20164;-68
2021/01/08 10:38:12;;;;;;;21.15;13.20;;;3.50;25.00;;;;;;5074303;28;20192;-69
2021/01/08 10:40:37;;;;;;;17.30;10.40;;;3.50;1.00;;;;;;5073996;28;20184;-68
2021/01/08 10:43:03;;;;;;;21.00;12.20;;;3.40;1.00;;;;;;5074049;28;20285;-68
2021/01/08 10:45:28;;;;;;;19.97;11.60;;;3.60;1.00;;;;;;5074060;28;20168;-69
2021/01/08 10:47:54;;;;;;;42.97;16.20;;;3.80;1.00;;;;;;5073853;28;20593;-69
2021/01/08 10:50:19;;;;;;;23.37;12.27;;;3.80;1.00;;;;;;5073731;28;20699;-69
2021/01/08 10:52:45;;;;;;;21.00;12.60;;;3.80;99.90;;;;;;5073790;28;20537;-69
2021/01/08 10:55:11;;;;;;;19.93;13.10;;;3.70;99.90;;;;;;5073114;28;20173;-68
2021/01/08 10:57:38;;;;;;;22.05;13.23;;;3.90;1.00;;;;;;5074294;28;20191;-68
2021/01/08 11:00:07;;;;;;;23.05;13.35;;;4.00;1.00;;;;;;5073510;28;20207;-67
2021/01/08 11:02:33;;;;;;;20.38;13.02;;;3.70;1.00;;;;;;5073802;28;20221;-67
2021/01/08 11:04:58;;;;;;;18.42;11.45;;;3.50;99.90;;;;;;5073760;28;20172;-68
2021/01/08 11:07:24;;;;;;;23.00;13.50;;;3.50;1.00;;;;;;5073718;28;20168;-66
2021/01/08 11:09:50;;;;;;;23.73;14.00;;;3.80;1.00;;;;;;5073566;28;20222;-68
2021/01/08 11:12:16;;;;;;;22.47;12.40;;;4.10;1.00;;;;;;5073254;28;20250;-68
2021/01/08 11:14:41;;;;;;;33.03;15.30;;;4.20;99.90;;;;;;5073312;28;20172;-68
2021/01/08 11:17:07;;;;;;;23.40;14.87;;;4.70;99.90;;;;;;5073778;28;20172;-67
2021/01/08 11:19:32;;;;;;;21.67;12.90;;;4.20;1.00;;;;;;5073172;28;20204;-69
2021/01/08 11:21:58;;;;;;;21.07;13.10;;;3.80;99.90;;;;;;5073104;28;20175;-69
2021/01/08 11:24:23;;;;;;;21.77;13.17;;;4.10;99.90;;;;;;5073677;28;20179;-69
2021/01/08 11:26:49;;;;;;;19.47;12.57;;;4.20;99.90;;;;;;5073222;28;20204;-69
2021/01/08 11:29:14;;;;;;;17.90;12.00;;;4.00;99.90;;;;;;5073199;28;20183;-69
2021/01/08 11:31:41;;;;;;;16.13;10.73;;;3.70;99.90;;;;;;5073451;28;20211;-69
2021/01/08 11:34:07;;;;;;;20.10;12.38;;;3.70;1.00;;;;;;5073317;28;20176;-69
2021/01/08 11:36:33;;;;;;;16.98;11.30;;;3.90;99.90;;;;;;5071747;28;20172;-68
2021/01/08 11:38:59;;;;;;;19.00;12.20;;;3.90;83.60;;;;;;5073027;28;20207;-69
2021/01/08 11:41:25;;;;;;;27.83;13.47;;;3.70;1.00;;;;;;5073063;28;20163;-68
2021/01/08 11:43:52;;;;;;;19.55;12.77;;;3.80;1.00;;;;;;5072821;28;20403;-69
2021/01/08 11:46:22;;;;;;;19.83;13.20;;;4.00;16.40;;;;;;5073101;28;20273;-68
2021/01/08 11:48:54;;;;;;;22.80;14.18;;;3.90;15.40;;;;;;5072882;28;20263;-69
2021/01/08 11:51:22;;;;;;;20.52;12.85;;;4.10;57.40;;;;;;5073277;28;20156;-68
2021/01/08 11:53:48;;;;;;;21.95;14.65;;;3.90;1.00;;;;;;5072475;28;20163;-69
2021/01/08 11:56:15;;;;;;;19.20;12.80;;;3.80;99.90;;;;;;5072468;28;20168;-69
2021/01/08 11:58:42;;;;;;;22.50;12.85;;;3.90;99.90;;;;;;5072533;28;20184;-69
2021/01/08 12:01:09;;;;;;;18.52;11.57;;;4.40;1.00;;;;;;5072390;28;20168;-69
2021/01/08 12:03:39;;;;;;;22.73;15.27;;;4.40;19.80;;;;;;5072627;28;20160;-68
2021/01/08 12:06:05;;;;;;;19.38;13.45;;;4.40;1.00;;;;;;5072677;28;20168;-69
2021/01/08 12:08:32;;;;;;;18.92;12.55;;;4.50;99.90;;;;;;5073018;28;20172;-69
2021/01/08 12:10:58;;;;;;;16.88;10.35;;;4.40;99.90;;;;;;5071619;28;20215;-69
2021/01/08 12:13:24;;;;;;;15.15;9.98;;;4.50;99.90;;;;;;5071921;28;20179;-69
2021/01/08 12:15:49;;;;;;;15.07;10.27;;;4.60;1.00;;;;;;5073048;28;20173;-69
2021/01/08 12:18:16;;;;;;;30.07;11.73;;;4.50;99.90;;;;;;5072525;28;20191;-69
2021/01/08 12:20:41;;;;;;;14.07;9.80;;;4.50;1.00;;;;;;5073084;28;20291;-69
2021/01/08 12:23:07;;;;;;;17.63;9.00;;;4.20;32.60;;;;;;5073559;28;20739;-69
2021/01/08 12:25:36;;;;;;;15.30;8.40;;;4.10;99.90;;;;;;5070999;28;20277;-68
2021/01/08 12:28:07;;;;;;;13.20;8.93;;;4.20;1.00;;;;;;5072670;28;20176;-69
2021/01/08 12:30:33;;;;;;;13.07;9.60;;;4.30;99.90;;;;;;5071135;28;20188;-69
2021/01/08 12:33:00;;;;;;;18.30;9.23;;;4.20;49.70;;;;;;5072492;28;20187;-69
2021/01/08 12:35:26;;;;;;;13.43;8.35;;;4.30;23.00;;;;;;5072789;28;20458;-68
2021/01/08 12:37:52;;;;;;;16.17;7.60;;;4.40;13.50;;;;;;5072399;28;20172;-67
2021/01/08 12:40:19;;;;;;;42.28;16.63;;;4.10;1.00;;;;;;5072721;28;20196;-68
2021/01/08 12:42:47;;;;;;;16.75;10.05;;;4.20;99.90;;;;;;5072600;28;20168;-69
2021/01/08 12:45:13;;;;;;;13.45;8.65;;;4.30;99.90;;;;;;5072870;28;20195;-69
2021/01/08 12:47:39;;;;;;;11.00;7.30;;;4.20;1.00;;;;;;5072544;28;20645;-69
2021/01/08 12:50:06;;;;;;;15.15;9.07;;;4.00;99.90;;;;;;5072680;28;20310;-68
2021/01/08 12:52:31;;;;;;;11.48;8.50;;;4.10;99.90;;;;;;5070870;28;20180;-69